Holmes, Pennsylvania
Current Conditions -  °F | °C
As of 8:54 AM on Thursday 18 Dec 2014 (Local Time) from KPHL Reporting Station
Broken Clouds Broken Clouds  
Wind Chill: 28°   Ceiling: 4100
Heat Index: 37°   Visibility: 10mi
Dew Point: 20°   Wind: 14mph
Humidity: 50%   Direction: 290°WNW
Pressure: 30.1"   Gusts: NA
Location:  39.9°N, 75.31°W
Report Text: KPHL 181354Z 29012KT 10SM BKN041 03/M07 A3010 RMK AO2 SLP190 T00281067
Loading
Personal Weather Stations






























Interactive Weather Map New forecast layout! Learn more

10-Day Weather Forecast

Advertisements
Track Severe Weather on mobile